Time;durP1;ratioP1;P1;durP2;ratioP2;P2;SDS_P1;SDS_P2;PMS_P1;PMS_P2;Temp;Humidity;BMP_temperature;BMP_pressure;BME280_temperature;BME280_humidity;BME280_pressure;Samples;Min_cycle;Max_cycle;Signal;HPM_P1;HPM_P2
2024/01/26 00:01:04;;;;;;;9.82;6.30;;;7.00;99.90;;;;;;5014243;28;20203;-66
2024/01/26 00:03:31;;;;;;;15.95;6.32;;;7.10;99.90;;;;;;5013595;28;20223;-66
2024/01/26 00:05:58;;;;;;;14.20;5.47;;;7.10;99.90;;;;;;5013717;28;20198;-66
2024/01/26 00:08:25;;;;;;;16.40;5.88;;;7.10;99.90;;;;;;5013874;28;20210;-66
2024/01/26 00:10:52;;;;;;;14.13;5.82;;;7.10;99.90;;;;;;5014006;28;20676;-65
2024/01/26 00:13:21;;;;;;;12.48;4.85;;;7.10;99.90;;;;;;5013748;28;20227;-66
2024/01/26 00:15:49;;;;;;;10.43;5.45;;;7.00;99.90;;;;;;5013603;28;20206;-66
2024/01/26 00:18:16;;;;;;;16.95;5.60;;;7.00;99.90;;;;;;5013452;28;20219;-66
2024/01/26 00:20:43;;;;;;;15.85;5.00;;;7.00;99.90;;;;;;5013631;28;20253;-64
2024/01/26 00:23:10;;;;;;;13.82;5.28;;;7.00;99.90;;;;;;5013291;28;20673;-66
2024/01/26 00:25:36;;;;;;;10.98;5.47;;;7.00;99.90;;;;;;5013888;28;20642;-67
2024/01/26 00:28:04;;;;;;;12.70;6.05;;;7.00;99.90;;;;;;5014358;28;20650;-65
2024/01/26 00:30:33;;;;;;;14.68;5.18;;;7.00;99.90;;;;;;5017771;28;20288;-66
2024/01/26 00:33:00;;;;;;;17.83;6.47;;;7.00;99.90;;;;;;5017553;28;20234;-66
2024/01/26 00:35:28;;;;;;;24.73;6.28;;;7.00;99.90;;;;;;5017318;28;20681;-65
2024/01/26 00:37:55;;;;;;;11.90;6.18;;;7.10;99.90;;;;;;5017229;28;20215;-66
2024/01/26 00:40:21;;;;;;;13.68;5.60;;;7.10;99.90;;;;;;5017361;28;20209;-64
2024/01/26 00:42:49;;;;;;;18.63;6.10;;;7.10;99.90;;;;;;5017344;28;20225;-66
2024/01/26 00:45:16;;;;;;;15.43;5.45;;;7.10;99.90;;;;;;5017160;28;20203;-65
2024/01/26 00:47:44;;;;;;;12.80;4.80;;;7.10;99.90;;;;;;5017437;28;20206;-66
2024/01/26 00:50:11;;;;;;;14.02;5.07;;;7.20;99.90;;;;;;5017263;28;20213;-67
2024/01/26 00:52:38;;;;;;;17.30;5.50;;;7.20;99.90;;;;;;5017156;28;20658;-65
2024/01/26 00:55:05;;;;;;;13.55;5.65;;;7.20;99.90;;;;;;5017340;28;20585;-66
2024/01/26 00:57:32;;;;;;;15.40;5.55;;;7.30;99.90;;;;;;5017346;28;20235;-67
2024/01/26 00:59:59;;;;;;;15.55;5.43;;;7.30;99.90;;;;;;5017285;28;20202;-66
2024/01/26 01:02:26;;;;;;;11.07;4.90;;;7.30;99.90;;;;;;5017314;28;20306;-66
2024/01/26 01:04:54;;;;;;;7.32;4.32;;;7.30;99.90;;;;;;5017215;28;20199;-66
2024/01/26 01:07:21;;;;;;;11.45;5.65;;;7.30;99.90;;;;;;5017012;28;20203;-66
2024/01/26 01:09:48;;;;;;;12.50;4.30;;;7.30;99.90;;;;;;5017297;28;20209;-65
2024/01/26 01:12:15;;;;;;;12.20;5.10;;;7.30;99.90;;;;;;5017784;28;20222;-66
2024/01/26 01:14:42;;;;;;;8.77;4.75;;;7.40;99.90;;;;;;5016425;28;20677;-67
2024/01/26 01:17:11;;;;;;;9.45;4.45;;;7.40;99.90;;;;;;5016566;28;20203;-66
2024/01/26 01:19:37;;;;;;;13.32;5.28;;;7.40;99.90;;;;;;5016457;28;20337;-66
2024/01/26 01:22:05;;;;;;;15.60;5.63;;;7.40;99.90;;;;;;5016576;28;20227;-65
2024/01/26 01:24:32;;;;;;;16.38;5.25;;;7.40;99.90;;;;;;5016799;28;20579;-66
2024/01/26 01:26:59;;;;;;;12.13;5.38;;;7.40;99.90;;;;;;5016377;28;20207;-66
2024/01/26 01:29:26;;;;;;;15.05;5.95;;;7.40;99.90;;;;;;5016480;28;20207;-67
2024/01/26 01:31:53;;;;;;;13.13;4.93;;;7.40;99.90;;;;;;5016043;28;20238;-66
2024/01/26 01:34:19;;;;;;;13.57;6.07;;;7.40;99.90;;;;;;5016279;28;20207;-67
2024/01/26 01:36:46;;;;;;;11.10;5.32;;;7.40;99.90;;;;;;5015651;28;20203;-67
2024/01/26 01:39:15;;;;;;;14.07;4.82;;;7.40;99.90;;;;;;5016404;28;20223;-67
2024/01/26 01:41:47;;;;;;;12.00;4.80;;;7.40;99.90;;;;;;5015749;28;20729;-66
2024/01/26 01:44:14;;;;;;;10.43;4.72;;;7.50;99.90;;;;;;5016213;28;20193;-68
2024/01/26 01:46:41;;;;;;;8.73;4.53;;;7.40;99.90;;;;;;5016089;28;20669;-67
2024/01/26 01:49:08;;;;;;;18.13;4.50;;;7.50;99.90;;;;;;5015624;28;20199;-65
2024/01/26 01:51:37;;;;;;;13.15;5.30;;;7.50;99.90;;;;;;5016721;28;20227;-65
2024/01/26 01:54:04;;;;;;;14.98;4.85;;;7.40;99.90;;;;;;5016214;28;20560;-66
2024/01/26 01:56:36;;;;;;;9.18;4.05;;;7.40;99.90;;;;;;5016489;28;20293;-67
2024/01/26 01:59:04;;;;;;;11.23;4.60;;;7.40;99.90;;;;;;5016714;28;20208;-66
2024/01/26 02:01:30;;;;;;;13.65;5.35;;;7.40;99.90;;;;;;5015893;28;20594;-66
2024/01/26 02:04:01;;;;;;;15.57;5.40;;;7.40;99.90;;;;;;5016347;28;20207;-67
2024/01/26 02:06:28;;;;;;;10.05;4.95;;;7.40;99.90;;;;;;5016918;28;20191;-65
2024/01/26 02:08:55;;;;;;;12.50;5.18;;;7.40;99.90;;;;;;5015665;28;20210;-65
2024/01/26 02:11:23;;;;;;;21.92;6.00;;;7.50;99.90;;;;;;5016075;28;20207;-65
2024/01/26 02:13:51;;;;;;;12.70;5.32;;;7.50;99.90;;;;;;5015791;28;20262;-65
2024/01/26 02:16:17;;;;;;;13.63;6.72;;;7.50;99.90;;;;;;5015085;28;20582;-64
2024/01/26 02:18:44;;;;;;;13.15;5.85;;;7.50;99.90;;;;;;5015349;28;20219;-65
2024/01/26 02:21:11;;;;;;;16.67;5.15;;;7.50;99.90;;;;;;5015214;28;20213;-65
2024/01/26 02:23:41;;;;;;;17.98;6.40;;;7.50;99.90;;;;;;5015228;28;20214;-66
2024/01/26 02:26:08;;;;;;;9.73;5.32;;;7.50;99.90;;;;;;5015435;28;20202;-66
2024/01/26 02:28:35;;;;;;;16.17;4.68;;;7.50;99.90;;;;;;5015344;28;20199;-65
2024/01/26 02:31:02;;;;;;;16.08;5.88;;;7.50;99.90;;;;;;5015335;28;20688;-66
2024/01/26 02:33:29;;;;;;;22.48;7.28;;;7.40;99.90;;;;;;5014864;28;20233;-66
2024/01/26 02:35:55;;;;;;;16.52;5.60;;;7.40;99.90;;;;;;5015096;28;20199;-65
2024/01/26 02:38:22;;;;;;;17.75;5.90;;;7.30;99.90;;;;;;5016121;28;20218;-66
2024/01/26 02:40:50;;;;;;;11.90;5.82;;;7.30;99.90;;;;;;5015059;28;20202;-65
2024/01/26 02:43:17;;;;;;;14.82;6.05;;;7.20;99.90;;;;;;5015399;28;20227;-66
2024/01/26 02:45:46;;;;;;;17.23;6.45;;;7.20;99.90;;;;;;5014698;28;20755;-65
2024/01/26 02:48:13;;;;;;;20.27;6.72;;;7.20;99.90;;;;;;5015422;28;20203;-65
2024/01/26 02:50:40;;;;;;;16.25;6.18;;;7.20;99.90;;;;;;5014692;28;20207;-63
2024/01/26 02:53:07;;;;;;;15.68;6.22;;;7.20;99.90;;;;;;5013698;28;20231;-65
2024/01/26 02:55:33;;;;;;;14.68;6.53;;;7.20;99.90;;;;;;5014659;28;20205;-64
2024/01/26 02:58:02;;;;;;;17.17;5.60;;;7.20;99.90;;;;;;5014630;28;20297;-64
2024/01/26 03:00:28;;;;;;;14.30;5.72;;;7.20;99.90;;;;;;5014659;28;20203;-64
2024/01/26 03:02:55;;;;;;;16.80;5.75;;;7.20;99.90;;;;;;5014636;28;20218;-65
2024/01/26 03:05:22;;;;;;;15.85;5.82;;;7.20;99.90;;;;;;5014513;28;20214;-64
2024/01/26 03:07:49;;;;;;;16.52;5.70;;;7.20;99.90;;;;;;5014406;28;20209;-65
2024/01/26 03:10:15;;;;;;;16.83;6.53;;;7.20;99.90;;;;;;5014099;28;20198;-64
2024/01/26 03:12:42;;;;;;;15.50;6.38;;;7.30;99.90;;;;;;5014209;28;20227;-64
2024/01/26 03:15:10;;;;;;;16.63;6.07;;;7.30;99.90;;;;;;5014573;28;20203;-65
2024/01/26 03:17:37;;;;;;;17.92;7.85;;;7.30;99.90;;;;;;5014366;28;20203;-65
2024/01/26 03:20:05;;;;;;;20.30;6.65;;;7.20;99.90;;;;;;5014245;28;20227;-64
2024/01/26 03:22:32;;;;;;;14.40;6.85;;;7.20;99.90;;;;;;5014319;28;20306;-64
2024/01/26 03:24:58;;;;;;;13.10;6.18;;;7.20;99.90;;;;;;5014441;28;20203;-65
2024/01/26 03:27:25;;;;;;;14.50;6.57;;;7.20;99.90;;;;;;5014759;28;20199;-65
2024/01/26 03:29:52;;;;;;;11.68;6.43;;;7.20;99.90;;;;;;5014656;28;20673;-63
2024/01/26 03:32:20;;;;;;;24.00;7.95;;;7.20;99.90;;;;;;5048632;23;20229;-66
2024/01/26 03:34:47;;;;;;;18.75;6.68;;;7.20;99.90;;;;;;5047218;28;20202;-66
2024/01/26 03:37:14;;;;;;;17.25;6.68;;;7.20;99.90;;;;;;5044794;28;20221;-65
2024/01/26 03:39:41;;;;;;;19.05;7.78;;;7.20;99.90;;;;;;5045432;28;20277;-66
2024/01/26 03:42:10;;;;;;;17.65;7.00;;;7.20;99.90;;;;;;5046326;28;20258;-64
2024/01/26 03:44:37;;;;;;;18.02;6.80;;;7.30;99.90;;;;;;5045794;28;20225;-66
2024/01/26 03:47:05;;;;;;;17.55;7.65;;;7.30;99.90;;;;;;5047033;28;20225;-66
2024/01/26 03:49:33;;;;;;;24.60;7.35;;;7.30;99.90;;;;;;5053083;28;20248;-66
2024/01/26 03:52:00;;;;;;;18.35;6.32;;;7.30;99.90;;;;;;5053174;28;20294;-65
2024/01/26 03:54:26;;;;;;;11.07;5.60;;;7.40;99.90;;;;;;5052740;28;20206;-64
2024/01/26 03:56:53;;;;;;;13.80;6.82;;;7.40;99.90;;;;;;5051963;28;20237;-66
2024/01/26 03:59:20;;;;;;;15.80;6.18;;;7.40;99.90;;;;;;5051260;28;20305;-66
2024/01/26 04:01:47;;;;;;;14.18;7.00;;;7.40;99.90;;;;;;5049249;28;20202;-64
2024/01/26 04:04:14;;;;;;;14.10;6.88;;;7.40;99.90;;;;;;5048428;28;20210;-65
2024/01/26 04:06:42;;;;;;;18.73;7.32;;;7.40;99.90;;;;;;5051083;28;20274;-66
2024/01/26 04:09:09;;;;;;;16.15;6.15;;;7.40;99.90;;;;;;5049633;28;20233;-65
2024/01/26 04:13:05;;;;;;;11.20;6.50;;;7.40;99.90;;;;;;5170780;27;20660;-66
2024/01/26 04:15:32;;;;;;;13.65;6.28;;;7.40;99.90;;;;;;5170007;27;20220;-66
2024/01/26 04:17:59;;;;;;;18.55;6.95;;;7.40;99.90;;;;;;5169253;27;20198;-66
2024/01/26 04:20:26;;;;;;;14.85;6.95;;;7.40;99.90;;;;;;5169445;27;20225;-65
2024/01/26 04:22:53;;;;;;;10.20;6.65;;;7.50;99.90;;;;;;5167963;27;20216;-66
2024/01/26 04:25:20;;;;;;;13.32;6.97;;;7.50;99.90;;;;;;5166483;27;20297;-65
2024/01/26 04:27:46;;;;;;;14.88;7.00;;;7.50;99.90;;;;;;5166197;27;20202;-66
2024/01/26 04:30:15;;;;;;;17.50;6.95;;;7.50;99.90;;;;;;5166702;27;20261;-65
2024/01/26 04:32:42;;;;;;;11.07;6.60;;;7.50;99.90;;;;;;5167222;27;20228;-65
2024/01/26 04:35:11;;;;;;;19.98;7.20;;;7.50;99.90;;;;;;5166162;27;20200;-63
2024/01/26 04:37:38;;;;;;;15.85;5.78;;;7.50;99.90;;;;;;5161255;27;20198;-66
2024/01/26 04:40:06;;;;;;;10.23;5.60;;;7.60;99.90;;;;;;5155069;27;20270;-65
2024/01/26 04:42:33;;;;;;;14.48;5.93;;;7.60;99.90;;;;;;5154065;27;20221;-64
2024/01/26 04:45:00;;;;;;;14.68;6.10;;;7.60;99.90;;;;;;5154791;27;20209;-65
2024/01/26 04:47:28;;;;;;;8.02;4.95;;;7.60;99.90;;;;;;5153099;27;20668;-65
2024/01/26 04:49:55;;;;;;;10.68;5.20;;;7.60;99.90;;;;;;5153395;27;20230;-65
2024/01/26 04:52:22;;;;;;;12.15;5.32;;;7.60;99.90;;;;;;5153386;27;20350;-65
2024/01/26 04:54:48;;;;;;;13.65;6.03;;;7.70;99.90;;;;;;5152979;27;20202;-65
2024/01/26 04:57:15;;;;;;;9.90;4.95;;;7.70;99.90;;;;;;5152827;27;20702;-65
2024/01/26 04:59:42;;;;;;;8.32;4.70;;;7.70;99.90;;;;;;5153375;27;20545;-65
2024/01/26 05:02:09;;;;;;;9.20;4.75;;;7.70;99.90;;;;;;5153219;27;20601;-64
2024/01/26 05:04:37;;;;;;;7.80;4.55;;;7.70;99.90;;;;;;5152713;27;20208;-66
2024/01/26 05:07:04;;;;;;;9.38;4.07;;;7.70;99.90;;;;;;5152835;27;20224;-65
2024/01/26 05:09:31;;;;;;;9.65;4.68;;;7.70;99.90;;;;;;5152249;27;20278;-65
2024/01/26 05:11:58;;;;;;;8.57;4.88;;;7.70;99.90;;;;;;5151945;27;20226;-65
2024/01/26 05:14:24;;;;;;;5.93;4.28;;;7.70;99.90;;;;;;5157336;27;20221;-64
2024/01/26 05:16:51;;;;;;;9.38;4.03;;;7.70;99.90;;;;;;5153104;27;20206;-63
2024/01/26 05:19:18;;;;;;;6.07;3.83;;;7.70;99.90;;;;;;5152442;27;20587;-64
2024/01/26 05:21:46;;;;;;;10.00;4.13;;;7.70;99.90;;;;;;5152294;27;20199;-64
2024/01/26 05:24:13;;;;;;;5.10;4.00;;;7.70;99.90;;;;;;5139722;27;20205;-65
2024/01/26 05:26:40;;;;;;;7.47;4.75;;;7.70;99.90;;;;;;5139727;27;20206;-65
2024/01/26 05:29:07;;;;;;;6.50;3.97;;;7.70;99.90;;;;;;5140713;27;20579;-64
2024/01/26 05:31:34;;;;;;;5.57;3.63;;;7.80;99.90;;;;;;5138851;27;20287;-64
2024/01/26 05:34:01;;;;;;;6.28;4.13;;;7.80;99.90;;;;;;5138575;27;20195;-64
2024/01/26 05:36:28;;;;;;;5.00;3.92;;;7.70;99.90;;;;;;5139638;27;20203;-65
2024/01/26 05:38:56;;;;;;;5.75;4.50;;;7.80;99.90;;;;;;5138678;27;20226;-66
2024/01/26 05:41:23;;;;;;;5.78;4.00;;;7.80;99.90;;;;;;5138976;27;20222;-64
2024/01/26 05:43:50;;;;;;;6.40;4.18;;;7.80;99.90;;;;;;5138990;27;20734;-64
2024/01/26 05:46:17;;;;;;;6.55;4.15;;;7.90;99.90;;;;;;5138327;27;20202;-65
2024/01/26 05:48:45;;;;;;;6.13;4.38;;;7.90;99.90;;;;;;5138688;27;20605;-66
2024/01/26 05:51:12;;;;;;;8.55;5.40;;;7.90;99.90;;;;;;5137879;27;20202;-65
2024/01/26 05:53:39;;;;;;;6.45;4.47;;;7.90;99.90;;;;;;5141769;27;20243;-65
2024/01/26 05:56:07;;;;;;;8.18;6.00;;;7.90;99.90;;;;;;5153792;27;20259;-65
2024/01/26 05:58:34;;;;;;;9.27;5.70;;;8.00;99.90;;;;;;5147651;27;20233;-66
2024/01/26 06:01:01;;;;;;;7.40;5.13;;;8.00;99.90;;;;;;5146055;27;20206;-64
2024/01/26 06:03:28;;;;;;;6.68;4.20;;;8.00;99.90;;;;;;5138354;27;20217;-65
2024/01/26 06:05:54;;;;;;;6.97;5.40;;;8.00;99.90;;;;;;5139055;27;20234;-66
2024/01/26 06:08:21;;;;;;;8.00;5.38;;;8.00;99.90;;;;;;5137999;27;20206;-65
2024/01/26 06:10:48;;;;;;;7.78;5.22;;;8.00;99.90;;;;;;5138031;27;20199;-66
2024/01/26 06:13:16;;;;;;;9.80;5.20;;;8.00;99.90;;;;;;5138010;27;20742;-65
2024/01/26 06:15:43;;;;;;;8.07;5.10;;;8.00;99.90;;;;;;5138506;27;20497;-66
2024/01/26 06:18:10;;;;;;;8.80;5.95;;;8.10;99.90;;;;;;5139365;27;20225;-65
2024/01/26 06:20:37;;;;;;;6.10;4.90;;;8.10;99.90;;;;;;5138578;27;20692;-65
2024/01/26 06:23:04;;;;;;;10.43;5.90;;;8.10;99.90;;;;;;5137959;27;20592;-65
2024/01/26 06:25:31;;;;;;;11.98;6.13;;;8.10;99.90;;;;;;5138022;27;20243;-65
2024/01/26 06:27:58;;;;;;;9.25;6.13;;;8.10;99.90;;;;;;5137181;27;20639;-65
2024/01/26 06:30:27;;;;;;;7.80;5.78;;;8.10;99.90;;;;;;5138349;27;20203;-65
2024/01/26 06:32:54;;;;;;;10.13;6.90;;;8.10;99.90;;;;;;5137611;27;20711;-66
2024/01/26 06:35:21;;;;;;;9.15;5.28;;;8.10;99.90;;;;;;5137541;27;20195;-65
2024/01/26 06:37:48;;;;;;;9.98;6.00;;;8.20;99.90;;;;;;5136654;27;20735;-64
2024/01/26 06:40:15;;;;;;;7.75;6.07;;;8.20;99.90;;;;;;5137890;27;20206;-66
2024/01/26 06:42:42;;;;;;;8.80;6.72;;;8.30;99.90;;;;;;5137012;27;20211;-66
2024/01/26 06:45:10;;;;;;;9.20;6.35;;;8.30;99.90;;;;;;5148857;27;20266;-65
2024/01/26 06:47:39;;;;;;;6.80;5.80;;;8.30;99.90;;;;;;5153114;27;20262;-64
2024/01/26 06:50:07;;;;;;;7.82;6.28;;;8.30;99.90;;;;;;5144526;27;20203;-65
2024/01/26 06:52:34;;;;;;;6.75;5.88;;;8.30;99.90;;;;;;5141578;27;20237;-66
2024/01/26 06:55:01;;;;;;;9.10;7.00;;;8.30;99.90;;;;;;5143026;27;20664;-65
2024/01/26 06:57:28;;;;;;;8.70;6.50;;;8.30;99.90;;;;;;5142402;27;20202;-66
2024/01/26 06:59:54;;;;;;;8.63;6.72;;;8.40;99.90;;;;;;5141405;27;20203;-65
2024/01/26 07:02:21;;;;;;;9.95;6.80;;;8.40;99.90;;;;;;5142279;27;20215;-65
2024/01/26 07:04:49;;;;;;;8.45;7.13;;;8.40;99.90;;;;;;5139840;27;20203;-65
2024/01/26 07:07:16;;;;;;;9.13;7.18;;;8.40;99.90;;;;;;5140700;27;20282;-65
2024/01/26 07:09:43;;;;;;;9.02;6.50;;;8.50;99.90;;;;;;5144372;27;20203;-68
2024/01/26 07:12:10;;;;;;;11.25;6.90;;;8.50;99.90;;;;;;5145879;27;20294;-64
2024/01/26 07:14:37;;;;;;;9.98;7.70;;;8.60;99.90;;;;;;5149413;27;20289;-64
2024/01/26 07:17:04;;;;;;;8.23;6.38;;;8.60;99.90;;;;;;5151677;27;20262;-65
2024/01/26 07:19:31;;;;;;;9.88;6.70;;;8.70;99.90;;;;;;5146439;27;20286;-65
2024/01/26 07:21:59;;;;;;;9.00;6.82;;;8.80;99.90;;;;;;5137476;27;20219;-65
2024/01/26 07:24:25;;;;;;;8.75;6.22;;;8.80;99.90;;;;;;5137809;27;20199;-65
2024/01/26 07:26:54;;;;;;;8.00;6.17;;;8.90;99.90;;;;;;5137237;27;20205;-65
2024/01/26 07:29:20;;;;;;;7.72;6.40;;;9.00;99.90;;;;;;5138210;27;20914;-63
2024/01/26 07:31:47;;;;;;;8.57;7.13;;;9.00;99.90;;;;;;5139735;27;20237;-66
2024/01/26 07:34:14;;;;;;;8.50;6.70;;;9.10;99.90;;;;;;5140895;27;20221;-66
2024/01/26 07:36:41;;;;;;;9.60;6.32;;;9.10;99.90;;;;;;5136885;27;20248;-66
2024/01/26 07:39:10;;;;;;;8.87;6.97;;;9.10;99.90;;;;;;5137306;27;20262;-65
2024/01/26 07:41:37;;;;;;;7.60;6.13;;;9.20;99.90;;;;;;5137795;27;20451;-64
2024/01/26 07:44:04;;;;;;;10.13;6.70;;;9.20;99.90;;;;;;5138409;27;20535;-65
2024/01/26 07:46:31;;;;;;;11.93;6.30;;;9.20;99.90;;;;;;5137550;27;20252;-64
2024/01/26 07:48:57;;;;;;;8.23;5.77;;;9.20;99.90;;;;;;5138202;27;20527;-64
2024/01/26 07:51:24;;;;;;;7.93;6.05;;;9.30;99.90;;;;;;5137544;27;20903;-65
2024/01/26 07:53:51;;;;;;;7.13;5.97;;;9.30;99.90;;;;;;5136871;27;20606;-66
2024/01/26 07:56:19;;;;;;;7.80;6.10;;;9.40;99.90;;;;;;5136663;27;20448;-65
2024/01/26 07:58:46;;;;;;;7.50;5.45;;;9.40;99.90;;;;;;5136055;27;20441;-65
2024/01/26 08:01:13;;;;;;;9.38;7.10;;;9.40;99.90;;;;;;5135886;27;20293;-65
2024/01/26 08:03:40;;;;;;;7.85;5.57;;;9.50;99.90;;;;;;5136182;27;20247;-64
2024/01/26 08:06:08;;;;;;;8.52;5.70;;;9.50;99.90;;;;;;5136246;27;20202;-64
2024/01/26 08:08:35;;;;;;;5.97;5.00;;;9.50;99.90;;;;;;5135860;27;20547;-65
2024/01/26 08:11:01;;;;;;;6.10;5.05;;;9.60;99.90;;;;;;5139012;27;20449;-65
2024/01/26 08:13:30;;;;;;;6.60;5.70;;;9.60;99.90;;;;;;5135934;27;20226;-65
2024/01/26 08:15:56;;;;;;;5.80;5.13;;;9.70;99.90;;;;;;5136062;27;20524;-65
2024/01/26 08:18:23;;;;;;;6.30;4.90;;;9.70;99.90;;;;;;5139751;27;20443;-65
2024/01/26 08:20:50;;;;;;;5.60;4.47;;;9.80;99.90;;;;;;5149876;27;20466;-66
2024/01/26 08:23:17;;;;;;;5.10;4.50;;;9.80;99.90;;;;;;5147216;27;20516;-64
2024/01/26 08:25:44;;;;;;;7.53;5.17;;;9.90;99.90;;;;;;5138163;27;20459;-65
2024/01/26 08:28:11;;;;;;;5.57;4.63;;;9.90;99.90;;;;;;5137902;27;20440;-64
2024/01/26 08:30:41;;;;;;;6.43;5.03;;;10.00;99.90;;;;;;5136605;27;20502;-66
2024/01/26 08:33:09;;;;;;;8.97;4.80;;;10.00;99.90;;;;;;5135688;27;20485;-65
2024/01/26 08:35:35;;;;;;;5.97;4.37;;;10.00;99.90;;;;;;5136040;27;20965;-65
2024/01/26 08:38:03;;;;;;;5.70;5.03;;;10.10;99.90;;;;;;5135972;27;20437;-65
2024/01/26 08:40:30;;;;;;;8.20;5.17;;;10.10;99.90;;;;;;5137160;27;20448;-65
2024/01/26 08:42:57;;;;;;;6.53;5.70;;;10.10;99.90;;;;;;5135870;27;21000;-66
2024/01/26 08:45:23;;;;;;;6.80;5.23;;;10.10;99.90;;;;;;5135988;27;20487;-65
2024/01/26 08:47:52;;;;;;;6.67;5.93;;;10.10;99.90;;;;;;5135742;27;20809;-65
2024/01/26 08:50:19;;;;;;;6.00;4.90;;;10.10;99.90;;;;;;5135656;27;20472;-66
2024/01/26 08:52:45;;;;;;;5.87;5.00;;;10.10;99.90;;;;;;5136243;27;20490;-66
2024/01/26 08:55:12;;;;;;;6.70;5.87;;;10.00;99.90;;;;;;5139151;27;20501;-65
2024/01/26 08:57:40;;;;;;;7.57;5.87;;;10.00;99.90;;;;;;5139260;27;20448;-64
2024/01/26 09:00:12;;;;;;;7.03;5.93;;;9.90;99.90;;;;;;5142847;27;20451;-66
2024/01/26 09:02:39;;;;;;;9.73;6.70;;;9.80;99.90;;;;;;5142137;27;20456;-66
2024/01/26 09:05:09;;;;;;;7.43;5.50;;;9.80;99.90;;;;;;5140653;27;20447;-66
2024/01/26 09:07:36;;;;;;;10.55;6.25;;;9.70;99.90;;;;;;5142257;27;20830;-65
2024/01/26 09:10:03;;;;;;;11.10;6.17;;;9.60;99.90;;;;;;5142371;27;20235;-66
2024/01/26 09:12:30;;;;;;;9.73;6.67;;;9.60;99.90;;;;;;5141841;27;20484;-66
2024/01/26 09:14:57;;;;;;;7.38;5.68;;;9.50;99.90;;;;;;5141814;27;20873;-65
2024/01/26 09:17:23;;;;;;;9.03;6.47;;;9.40;99.90;;;;;;5141566;27;20195;-66
2024/01/26 09:19:50;;;;;;;9.10;6.07;;;9.40;99.90;;;;;;5146065;27;20435;-65
2024/01/26 09:22:18;;;;;;;11.05;5.25;;;9.40;99.90;;;;;;5146014;27;21025;-67
2024/01/26 09:24:45;;;;;;;9.60;5.57;;;9.40;99.90;;;;;;5142630;27;20198;-65
2024/01/26 09:27:12;;;;;;;7.23;5.47;;;9.40;99.90;;;;;;5141647;27;20432;-66
2024/01/26 09:29:39;;;;;;;7.53;4.93;;;9.40;99.90;;;;;;5143488;27;20446;-66
2024/01/26 09:32:06;;;;;;;6.40;4.80;;;9.40;99.90;;;;;;5146073;27;20543;-65
2024/01/26 09:34:33;;;;;;;9.18;5.10;;;9.40;99.90;;;;;;5143473;27;20482;-65
2024/01/26 09:36:59;;;;;;;5.78;4.03;;;9.40;99.90;;;;;;5142137;27;20225;-65
2024/01/26 09:39:28;;;;;;;5.43;4.20;;;9.40;99.90;;;;;;5142630;27;20199;-65
2024/01/26 09:41:55;;;;;;;5.72;4.53;;;9.40;99.90;;;;;;5140627;27;20634;-65
2024/01/26 09:44:22;;;;;;;6.78;4.80;;;9.40;99.90;;;;;;5140459;27;20199;-66
2024/01/26 09:46:50;;;;;;;5.90;4.13;;;9.40;99.90;;;;;;5141061;27;20210;-65
2024/01/26 09:49:16;;;;;;;8.00;4.47;;;9.40;99.90;;;;;;5143915;27;20437;-65
2024/01/26 09:51:43;;;;;;;6.65;4.72;;;9.40;99.90;;;;;;5142923;27;20203;-64
2024/01/26 09:54:12;;;;;;;6.97;4.80;;;9.40;99.90;;;;;;5140788;27;20214;-66
2024/01/26 09:56:42;;;;;;;7.50;3.95;;;9.40;99.90;;;;;;5139058;27;20209;-65
2024/01/26 09:59:11;;;;;;;5.90;4.28;;;9.40;99.90;;;;;;5139076;27;20301;-66
2024/01/26 10:01:39;;;;;;;6.13;4.63;;;9.40;99.90;;;;;;5139266;27;20672;-65
2024/01/26 10:04:08;;;;;;;3.83;3.42;;;9.30;99.90;;;;;;5138336;27;20571;-64
2024/01/26 10:06:35;;;;;;;5.78;4.93;;;9.30;99.90;;;;;;5139412;27;20206;-65
2024/01/26 10:09:03;;;;;;;10.27;5.17;;;9.30;99.90;;;;;;5140206;27;20576;-66
2024/01/26 10:11:31;;;;;;;5.10;3.53;;;9.30;99.90;;;;;;5140273;27;20464;-66
2024/01/26 10:13:59;;;;;;;5.60;3.80;;;9.30;99.90;;;;;;5141026;27;20230;-66
2024/01/26 10:16:25;;;;;;;4.10;3.70;;;9.30;99.90;;;;;;5139400;27;20199;-66
2024/01/26 10:18:52;;;;;;;4.07;3.10;;;9.30;99.90;;;;;;5139264;27;20203;-65
2024/01/26 10:21:20;;;;;;;3.85;3.40;;;9.30;99.90;;;;;;5139038;27;20207;-66
2024/01/26 10:23:47;;;;;;;6.33;2.90;;;9.30;99.90;;;;;;5138044;27;20214;-66
2024/01/26 10:26:14;;;;;;;5.03;2.77;;;9.30;99.90;;;;;;5139281;27;20853;-65
2024/01/26 10:28:43;;;;;;;3.15;2.40;;;9.40;99.90;;;;;;5139131;27;20535;-65
2024/01/26 10:31:11;;;;;;;5.10;3.37;;;9.40;99.90;;;;;;5139932;27;20203;-66
2024/01/26 10:33:40;;;;;;;3.25;2.95;;;9.40;99.90;;;;;;5138925;27;20483;-67
2024/01/26 10:36:10;;;;;;;3.78;2.92;;;9.40;99.90;;;;;;5144566;27;20275;-67
2024/01/26 10:38:39;;;;;;;3.63;2.67;;;9.40;99.90;;;;;;5139501;27;20304;-65
2024/01/26 10:41:06;;;;;;;6.65;5.85;;;9.40;99.90;;;;;;5146714;27;20209;-66
2024/01/26 10:43:33;;;;;;;3.07;2.77;;;9.40;99.90;;;;;;5150264;27;20253;-65
2024/01/26 10:46:02;;;;;;;2.42;1.92;;;9.40;99.90;;;;;;5144612;27;20532;-67
2024/01/26 10:48:30;;;;;;;5.00;2.53;;;9.50;99.90;;;;;;5153511;27;20204;-67
2024/01/26 10:50:58;;;;;;;2.92;2.00;;;9.50;99.90;;;;;;5150143;27;20206;-66
2024/01/26 10:53:25;;;;;;;2.67;1.73;;;9.50;99.90;;;;;;5146893;27;20230;-66
2024/01/26 10:55:53;;;;;;;2.43;1.57;;;9.50;99.90;;;;;;5141839;27;20867;-68
2024/01/26 10:58:20;;;;;;;3.65;1.80;;;9.60;99.90;;;;;;5140336;27;20933;-66
2024/01/26 11:00:48;;;;;;;2.08;1.95;;;9.70;99.90;;;;;;5140505;27;20198;-66
2024/01/26 11:03:16;;;;;;;3.60;2.00;;;9.80;99.90;;;;;;5142807;27;20586;-67
2024/01/26 11:05:49;;;;;;;2.05;1.50;;;9.80;99.90;;;;;;5142120;27;20443;-66
2024/01/26 11:08:22;;;;;;;2.13;1.93;;;9.90;99.90;;;;;;5139000;27;20183;-66
2024/01/26 11:10:50;;;;;;;3.67;2.20;;;10.00;99.90;;;;;;5136855;27;20867;-66
2024/01/26 11:13:17;;;;;;;5.20;3.30;;;10.10;99.90;;;;;;5136517;27;20516;-65
2024/01/26 11:15:44;;;;;;;4.43;2.67;;;10.20;99.90;;;;;;5136475;27;20769;-66
2024/01/26 11:18:22;;;;;;;4.50;2.10;;;10.30;99.90;;;;;;5135868;27;20539;-66
2024/01/26 11:20:50;;;;;;;4.37;2.00;;;10.40;99.90;;;;;;5136546;27;20425;-67
2024/01/26 11:23:18;;;;;;;2.97;1.77;;;10.40;99.90;;;;;;5137040;27;20463;-67
2024/01/26 11:25:46;;;;;;;3.73;1.70;;;10.50;99.90;;;;;;5137707;27;20464;-65
2024/01/26 11:28:16;;;;;;;3.00;1.80;;;10.50;99.90;;;;;;5137503;27;20444;-67
2024/01/26 11:30:51;;;;;;;2.40;1.87;;;10.60;99.90;;;;;;5136810;27;20523;-64
2024/01/26 11:33:21;;;;;;;3.83;2.13;;;10.80;99.90;;;;;;5137145;27;20490;-66
2024/01/26 11:35:49;;;;;;;2.70;2.17;;;10.80;99.90;;;;;;5137575;27;20527;-66
2024/01/26 11:38:18;;;;;;;2.47;2.13;;;10.90;99.90;;;;;;5144020;27;20524;-66
2024/01/26 11:40:46;;;;;;;2.57;2.37;;;10.90;99.90;;;;;;5141876;27;20463;-66
2024/01/26 11:43:12;;;;;;;2.23;2.03;;;11.00;99.90;;;;;;5142508;27;20460;-67
2024/01/26 11:45:43;;;;;;;3.30;2.10;;;10.90;99.90;;;;;;5140475;27;20445;-65
2024/01/26 11:48:11;;;;;;;2.40;2.20;;;10.90;99.90;;;;;;5139796;27;20442;-67
2024/01/26 11:50:40;;;;;;;2.83;2.63;;;10.80;99.90;;;;;;5138718;27;20512;-66
2024/01/26 11:53:09;;;;;;;2.90;2.70;;;10.90;99.90;;;;;;5138090;27;20495;-67
2024/01/26 11:55:37;;;;;;;4.20;2.80;;;10.90;99.90;;;;;;5137404;27;20484;-68
2024/01/26 11:58:04;;;;;;;2.97;2.70;;;10.90;99.90;;;;;;5138188;27;20444;-67
2024/01/26 12:00:31;;;;;;;2.53;2.33;;;10.90;99.90;;;;;;5139818;27;20447;-67
2024/01/26 12:02:58;;;;;;;2.60;2.40;;;10.80;99.90;;;;;;5138558;27;20453;-67
2024/01/26 12:05:26;;;;;;;3.30;2.47;;;10.80;99.90;;;;;;5141434;27;20504;-67
2024/01/26 12:07:54;;;;;;;2.77;2.57;;;10.80;99.90;;;;;;5137735;27;20483;-68
2024/01/26 12:10:23;;;;;;;2.60;2.40;;;10.80;99.90;;;;;;5138145;27;20447;-67
2024/01/26 12:12:50;;;;;;;2.27;2.07;;;10.70;99.90;;;;;;5139775;27;20475;-68
2024/01/26 12:15:17;;;;;;;2.00;1.90;;;10.70;99.90;;;;;;5138354;27;20481;-68
2024/01/26 12:17:44;;;;;;;1.20;1.10;;;10.60;99.90;;;;;;5148507;27;20477;-67
2024/01/26 12:20:12;;;;;;;1.23;1.00;;;10.40;99.90;;;;;;5140740;27;20503;-68
2024/01/26 12:22:39;;;;;;;1.17;0.63;;;9.90;99.90;;;;;;5139468;27;20536;-66
2024/01/26 12:25:07;;;;;;;1.00;0.60;;;9.70;99.90;;;;;;5137800;27;20436;-67
2024/01/26 12:27:36;;;;;;;0.85;0.52;;;9.50;99.90;;;;;;5137563;27;20445;-67
2024/01/26 12:30:04;;;;;;;2.87;0.70;;;9.40;99.90;;;;;;5138234;27;20202;-67
2024/01/26 12:32:30;;;;;;;0.60;0.50;;;9.30;99.90;;;;;;5137584;27;20556;-68
2024/01/26 12:34:59;;;;;;;1.30;0.77;;;9.30;99.90;;;;;;5143329;27;20301;-68
2024/01/26 12:37:27;;;;;;;1.02;0.60;;;9.40;99.90;;;;;;5142393;27;20202;-66
2024/01/26 12:39:54;;;;;;;0.70;0.60;;;9.30;99.90;;;;;;5143526;27;20210;-67
2024/01/26 12:42:21;;;;;;;2.40;1.50;;;9.30;99.90;;;;;;5142645;27;20599;-67
2024/01/26 12:44:50;;;;;;;2.53;0.80;;;9.10;99.90;;;;;;5141793;27;20194;-67
2024/01/26 12:47:17;;;;;;;1.05;0.60;;;8.90;99.90;;;;;;5141994;27;20225;-67
2024/01/26 12:49:44;;;;;;;2.25;0.60;;;8.80;99.90;;;;;;5141464;27;20209;-67
2024/01/26 12:52:12;;;;;;;1.25;0.50;;;8.70;99.90;;;;;;5140960;27;20249;-67
2024/01/26 12:54:39;;;;;;;0.70;0.50;;;8.70;99.90;;;;;;5141355;27;20295;-68